createdAt,value
2022-08-12T00:02:17.957Z,17.76
2022-08-12T00:05:06.718Z,17.74
2022-08-12T00:07:55.566Z,17.69
2022-08-12T00:10:42.580Z,17.59
2022-08-12T00:13:29.519Z,17.61
2022-08-12T00:16:18.137Z,17.60
2022-08-12T00:19:04.445Z,17.59
2022-08-12T00:21:51.548Z,17.59
2022-08-12T00:24:40.160Z,17.54
2022-08-12T00:27:43.363Z,17.50
2022-08-12T00:30:31.330Z,17.50
2022-08-12T00:33:17.790Z,17.48
2022-08-12T00:36:10.110Z,17.44
2022-08-12T00:39:05.281Z,17.40
2022-08-12T00:41:53.676Z,17.37
2022-08-12T00:44:23.795Z,17.37
2022-08-12T00:46:59.472Z,17.35
2022-08-12T00:49:29.339Z,17.29
2022-08-12T00:52:10.049Z,17.28
2022-08-12T00:54:51.453Z,17.25
2022-08-12T00:57:37.386Z,17.22
2022-08-12T01:00:12.381Z,17.10
2022-08-12T01:02:47.103Z,17.07
2022-08-12T01:05:37.830Z,17.05
2022-08-12T01:08:27.896Z,17.07
2022-08-12T01:11:15.930Z,17.02
2022-08-12T01:13:47.687Z,17.00
2022-08-12T01:16:18.183Z,17.00
2022-08-12T01:18:46.044Z,17.03
2022-08-12T01:21:33.844Z,17.01
2022-08-12T01:24:36.792Z,17.02
2022-08-12T01:27:07.970Z,16.95
2022-08-12T01:29:42.359Z,16.93
2022-08-12T01:32:14.498Z,16.91
2022-08-12T01:35:13.442Z,16.88
2022-08-12T01:37:57.924Z,16.80
2022-08-12T01:40:38.171Z,16.78
2022-08-12T01:43:09.681Z,16.81
2022-08-12T01:45:52.476Z,16.80
2022-08-12T01:48:41.990Z,16.83
2022-08-12T01:52:15.667Z,16.81
2022-08-12T01:54:18.487Z,16.80
2022-08-12T01:57:07.407Z,16.81
2022-08-12T01:59:59.287Z,16.80
2022-08-12T02:02:32.415Z,16.71
2022-08-12T02:05:43.854Z,16.70
2022-08-12T02:08:48.454Z,16.68
2022-08-12T02:11:45.557Z,16.61
2022-08-12T02:14:25.258Z,16.52
2022-08-12T02:17:02.265Z,16.47
2022-08-12T02:19:29.898Z,16.41
2022-08-12T02:22:22.234Z,16.42
2022-08-12T02:24:54.262Z,16.37
2022-08-12T02:27:24.540Z,16.32
2022-08-12T02:29:52.317Z,16.28
2022-08-12T02:32:21.341Z,16.25
2022-08-12T02:34:49.902Z,16.25
2022-08-12T02:37:18.479Z,16.19
2022-08-12T02:39:50.113Z,16.17
2022-08-12T02:42:22.601Z,16.14
2022-08-12T02:44:53.255Z,16.16
2022-08-12T02:47:59.161Z,16.14
2022-08-12T02:50:11.043Z,16.08
2022-08-12T02:52:40.326Z,16.00
2022-08-12T02:55:34.531Z,15.93
2022-08-12T02:58:12.039Z,15.91
2022-08-12T03:00:44.367Z,15.93
2022-08-12T03:03:14.570Z,15.91
2022-08-12T03:05:54.527Z,15.84
2022-08-12T03:08:32.567Z,15.84
2022-08-12T03:11:14.353Z,15.86
2022-08-12T03:13:47.042Z,15.83
2022-08-12T03:16:14.922Z,15.87
2022-08-12T03:18:45.942Z,15.89
2022-08-12T03:21:17.092Z,15.90
2022-08-12T03:23:46.460Z,15.89
2022-08-12T03:26:14.960Z,15.91
2022-08-12T03:28:51.932Z,15.94
2022-08-12T03:31:30.107Z,15.96
2022-08-12T03:34:10.142Z,15.95
2022-08-12T03:36:40.842Z,15.98
2022-08-12T03:39:35.651Z,16.02
2022-08-12T03:42:17.984Z,16.02
2022-08-12T03:45:51.906Z,16.01
2022-08-12T03:48:39.809Z,16.11
2022-08-12T03:51:26.682Z,16.16
2022-08-12T03:54:13.713Z,16.16
2022-08-12T03:57:00.244Z,16.15
2022-08-12T03:59:46.707Z,16.13
2022-08-12T04:02:17.597Z,16.12
2022-08-12T04:04:46.537Z,16.14
2022-08-12T04:07:16.414Z,16.12
2022-08-12T04:09:46.226Z,16.03
2022-08-12T04:12:33.373Z,16.03
2022-08-12T04:15:02.893Z,16.01
2022-08-12T04:17:31.914Z,15.99
2022-08-12T04:20:00.125Z,15.98
2022-08-12T04:35:50.563Z,16.41
2022-08-12T04:38:19.982Z,16.48
2022-08-12T04:40:48.968Z,16.42
2022-08-12T04:44:01.159Z,16.39
2022-08-12T04:46:05.465Z,16.44
2022-08-12T04:48:33.134Z,16.47
2022-08-12T04:51:02.127Z,16.53
2022-08-12T04:53:31.053Z,16.61
2022-08-12T04:55:58.941Z,16.64
2022-08-12T04:58:30.154Z,16.66
2022-08-12T05:00:58.324Z,16.69
2022-08-12T05:03:27.022Z,16.71
2022-08-12T05:05:58.133Z,16.76
2022-08-12T05:08:26.547Z,16.73
2022-08-12T05:10:54.619Z,16.77
2022-08-12T05:13:27.908Z,16.80
2022-08-12T05:16:03.971Z,16.74
2022-08-12T05:18:39.428Z,16.72
2022-08-12T05:21:09.210Z,16.73
2022-08-12T05:23:38.526Z,16.77
2022-08-12T05:26:06.910Z,16.72
2022-08-12T05:28:35.005Z,16.64
2022-08-12T05:31:04.626Z,16.63
2022-08-12T05:33:41.119Z,16.65
2022-08-12T05:36:16.464Z,16.71
2022-08-12T05:38:58.351Z,16.78
2022-08-12T05:41:35.337Z,16.77
2022-08-12T05:44:06.646Z,16.75
2022-08-12T05:46:36.775Z,16.74
2022-08-12T05:49:06.290Z,16.67
2022-08-12T05:51:39.829Z,16.64
2022-08-12T05:54:11.512Z,16.70
2022-08-12T05:56:41.613Z,16.79
2022-08-12T05:59:12.775Z,16.86
2022-08-12T06:02:11.882Z,16.94
2022-08-12T06:04:31.176Z,17.05
2022-08-12T06:07:01.916Z,17.19
2022-08-12T06:09:31.060Z,17.24
2022-08-12T06:12:05.712Z,17.31
2022-08-12T06:14:37.693Z,17.35
2022-08-12T06:17:09.154Z,17.43
2022-08-12T06:20:27.197Z,17.53
2022-08-12T06:22:26.845Z,17.77
2022-08-12T06:24:55.169Z,18.06
2022-08-12T06:27:23.158Z,18.29
2022-08-12T06:30:08.414Z,18.63
2022-08-12T06:32:47.732Z,18.71
2022-08-12T06:35:48.141Z,18.61
2022-08-12T06:38:25.425Z,18.70
2022-08-12T06:41:22.498Z,18.74
2022-08-12T06:44:04.647Z,18.90
2022-08-12T06:46:33.110Z,19.28
2022-08-12T06:49:00.937Z,19.54
2022-08-12T06:51:31.885Z,19.83
2022-08-12T06:54:00.933Z,20.10
2022-08-12T06:57:00.209Z,20.31
2022-08-12T06:59:21.415Z,20.49
2022-08-12T07:01:51.581Z,20.76
2022-08-12T07:04:38.030Z,21.03
2022-08-12T07:07:09.151Z,21.28
2022-08-12T07:10:04.049Z,21.35
2022-08-12T07:12:28.171Z,21.35
2022-08-12T07:14:58.351Z,21.28
2022-08-12T07:17:36.188Z,21.20
2022-08-12T07:20:29.818Z,21.20
2022-08-12T07:23:01.025Z,21.21
2022-08-12T07:25:37.457Z,21.29
2022-08-12T07:28:35.601Z,21.43
2022-08-12T07:31:05.182Z,21.55
2022-08-12T07:33:33.131Z,21.84
2022-08-12T07:36:02.415Z,22.15
2022-08-12T07:38:40.127Z,22.60
2022-08-12T07:41:14.511Z,22.81
2022-08-12T07:43:53.855Z,22.63
2022-08-12T07:46:24.341Z,22.71
2022-08-12T07:48:58.545Z,22.64
2022-08-12T07:51:26.472Z,22.77
2022-08-12T07:54:01.098Z,23.04
2022-08-12T07:56:31.602Z,23.30
2022-08-12T07:59:01.282Z,23.32
2022-08-12T08:01:30.340Z,23.29
2022-08-12T08:04:19.367Z,23.23
2022-08-12T08:06:49.382Z,23.51
2022-08-12T08:09:19.589Z,23.75
2022-08-12T08:14:18.113Z,23.95
2022-08-12T08:16:46.442Z,24.05
2022-08-12T08:19:23.931Z,24.11
2022-08-12T08:21:55.025Z,24.06
2022-08-12T08:24:27.034Z,24.17
2022-08-12T08:26:58.727Z,23.98
2022-08-12T08:29:27.146Z,24.01
2022-08-12T08:31:58.328Z,24.24
2022-08-12T08:37:21.411Z,24.41
2022-08-12T08:39:51.376Z,24.48
2022-08-12T08:42:40.457Z,24.40
2022-08-12T08:45:13.116Z,24.28
2022-08-12T08:47:45.819Z,24.33
2022-08-12T08:50:15.346Z,24.32
2022-08-12T08:52:44.358Z,24.41
2022-08-12T08:55:14.047Z,24.36
2022-08-12T08:57:47.706Z,24.76
2022-08-12T09:00:18.615Z,24.90
2022-08-12T09:02:59.323Z,25.21
2022-08-12T09:06:01.404Z,25.40
2022-08-12T09:08:26.729Z,25.28
2022-08-12T09:12:07.434Z,25.13
2022-08-12T09:14:11.838Z,25.33
2022-08-12T09:16:42.668Z,25.65
2022-08-12T09:19:27.412Z,25.63
2022-08-12T09:21:57.358Z,25.71
2022-08-12T09:24:28.391Z,25.69
2022-08-12T09:26:58.799Z,25.68
2022-08-12T09:30:11.537Z,25.69
2022-08-12T09:32:31.496Z,25.68
2022-08-12T09:35:07.808Z,25.88
2022-08-12T09:37:58.471Z,25.94
2022-08-12T09:40:57.497Z,25.98
2022-08-12T09:43:35.222Z,25.87
2022-08-12T09:46:07.049Z,25.74
2022-08-12T09:48:55.832Z,25.71
2022-08-12T09:51:38.297Z,25.66
2022-08-12T09:54:31.728Z,25.85
2022-08-12T09:58:07.016Z,25.65
2022-08-12T10:00:15.817Z,25.43
2022-08-12T10:02:44.234Z,25.39
2022-08-12T10:05:17.904Z,25.42
2022-08-12T10:07:48.408Z,25.90
2022-08-12T10:10:24.527Z,26.15
2022-08-12T10:13:35.116Z,26.07
2022-08-12T10:16:05.930Z,26.37
2022-08-12T10:18:51.933Z,26.36
2022-08-12T10:21:36.380Z,25.95
2022-08-12T10:24:08.508Z,25.78
2022-08-12T10:26:57.385Z,25.73
2022-08-12T10:30:03.581Z,25.78
2022-08-12T10:33:02.439Z,25.67
2022-08-12T10:35:24.810Z,25.64
2022-08-12T10:38:34.153Z,25.70
2022-08-12T10:41:12.315Z,26.18
2022-08-12T10:43:54.943Z,26.36
2022-08-12T10:46:30.551Z,26.33
2022-08-12T10:49:05.616Z,25.98
2022-08-12T10:52:03.752Z,26.17
2022-08-12T10:54:26.818Z,26.32
2022-08-12T10:56:57.853Z,26.47
2022-08-12T10:59:58.084Z,26.37
2022-08-12T11:04:25.349Z,26.29
2022-08-12T11:07:09.741Z,26.34
2022-08-12T11:08:34.332Z,26.21
2022-08-12T11:10:39.001Z,25.89
2022-08-12T11:13:09.506Z,26.05
2022-08-12T11:16:03.692Z,26.26
2022-08-12T11:18:25.205Z,26.45
2022-08-12T11:20:54.574Z,26.59
2022-08-12T11:23:37.148Z,26.63
2022-08-12T11:26:07.397Z,26.68
2022-08-12T11:28:37.881Z,26.68
2022-08-12T11:31:12.126Z,26.74
2022-08-12T11:34:05.857Z,26.82
2022-08-12T11:36:31.536Z,26.75
2022-08-12T11:39:01.398Z,26.38
2022-08-12T11:41:34.687Z,26.47
2022-08-12T11:44:35.063Z,26.57
2022-08-12T11:46:54.603Z,26.69
2022-08-12T11:49:32.388Z,26.90
2022-08-12T11:52:02.396Z,27.16
2022-08-12T11:54:31.461Z,27.21
2022-08-12T11:57:02.037Z,27.29
2022-08-12T12:02:21.174Z,27.26
2022-08-12T12:04:52.325Z,27.25
2022-08-12T12:08:35.968Z,27.44
2022-08-12T12:10:13.079Z,27.27
2022-08-12T12:12:49.563Z,27.22
2022-08-12T12:15:24.674Z,27.19
2022-08-12T12:17:55.820Z,27.33
2022-08-12T12:20:26.137Z,27.60
2022-08-12T12:22:58.546Z,27.61
2022-08-12T12:25:59.695Z,27.54
2022-08-12T12:28:36.650Z,27.52
2022-08-12T12:31:04.272Z,27.35
2022-08-12T12:33:57.295Z,27.52
2022-08-12T12:36:26.442Z,27.48
2022-08-12T12:39:00.151Z,27.55
2022-08-12T12:42:42.551Z,27.69
2022-08-12T12:44:26.002Z,27.60
2022-08-12T12:47:29.345Z,27.37
2022-08-12T12:49:54.067Z,27.15
2022-08-12T12:52:26.973Z,27.01
2022-08-12T12:54:58.700Z,26.91
2022-08-12T12:57:59.511Z,27.01
2022-08-12T13:00:16.578Z,27.26
2022-08-12T13:02:53.951Z,27.38
2022-08-12T13:05:28.227Z,27.28
2022-08-12T13:08:01.141Z,27.28
2022-08-12T13:10:36.925Z,27.54
2022-08-12T13:14:09.877Z,27.80
2022-08-12T13:15:59.137Z,27.97
2022-08-12T13:18:36.746Z,28.04
2022-08-12T13:21:06.816Z,27.84
2022-08-12T13:23:47.957Z,27.83
2022-08-12T13:26:18.772Z,27.79
2022-08-12T13:28:53.357Z,27.71
2022-08-12T13:31:25.211Z,27.63
2022-08-12T13:34:32.349Z,27.50
2022-08-12T13:36:43.462Z,27.48
2022-08-12T13:39:12.651Z,27.45
2022-08-12T13:41:44.502Z,27.60
2022-08-12T13:44:13.086Z,27.74
2022-08-12T13:46:42.307Z,27.77
2022-08-12T13:49:17.286Z,27.68
2022-08-12T13:51:54.326Z,27.62
2022-08-12T13:54:22.000Z,27.69
2022-08-12T13:56:51.496Z,27.84
2022-08-12T13:59:24.438Z,27.99
2022-08-12T14:01:56.704Z,27.87
2022-08-12T14:04:25.552Z,27.89
2022-08-12T14:06:55.183Z,27.82
2022-08-12T14:09:22.978Z,27.83
2022-08-12T14:11:59.416Z,27.86
2022-08-12T14:14:31.748Z,27.90
2022-08-12T14:17:09.925Z,27.87
2022-08-12T14:20:00.491Z,27.86
2022-08-12T14:22:30.379Z,27.76
2022-08-12T14:25:01.408Z,27.80
2022-08-12T14:28:06.085Z,27.86
2022-08-12T14:30:28.911Z,27.81
2022-08-12T14:33:03.134Z,27.81
2022-08-12T14:35:33.989Z,27.74
2022-08-12T14:38:16.318Z,27.57
2022-08-12T14:40:45.023Z,27.55
2022-08-12T14:43:16.174Z,27.56
2022-08-12T14:45:49.200Z,27.50
2022-08-12T14:48:19.306Z,27.41
2022-08-12T14:51:09.797Z,27.44
2022-08-12T14:54:52.899Z,27.52
2022-08-12T14:59:56.529Z,27.58
2022-08-12T15:02:28.726Z,27.63
2022-08-12T15:05:00.804Z,27.75
2022-08-12T15:07:33.568Z,27.75
2022-08-12T15:10:31.795Z,27.57
2022-08-12T15:13:07.637Z,27.46
2022-08-12T15:15:44.167Z,27.32
2022-08-12T15:18:22.902Z,27.26
2022-08-12T15:21:01.109Z,27.13
2022-08-12T15:23:54.969Z,27.11
2022-08-12T15:26:28.600Z,27.17
2022-08-12T15:28:58.961Z,27.14
2022-08-12T15:31:28.292Z,27.18
2022-08-12T15:34:04.749Z,27.27
2022-08-12T15:36:53.590Z,27.24
2022-08-12T15:39:23.491Z,27.23
2022-08-12T15:41:55.811Z,27.24
2022-08-12T15:44:38.272Z,27.23
2022-08-12T15:47:11.768Z,27.22
2022-08-12T15:49:54.918Z,27.21
2022-08-12T15:52:29.605Z,27.20
2022-08-12T15:55:06.239Z,27.18
2022-08-12T15:57:54.204Z,27.17
2022-08-12T16:00:32.928Z,27.17
2022-08-12T16:03:05.621Z,27.20
2022-08-12T16:06:19.455Z,27.16
2022-08-12T16:08:29.819Z,27.17
2022-08-12T16:10:57.676Z,27.15
2022-08-12T16:13:34.407Z,27.11
2022-08-12T16:16:22.602Z,27.08
2022-08-12T16:18:59.635Z,27.05
2022-08-12T16:21:52.306Z,27.00
2022-08-12T16:24:18.988Z,27.01
2022-08-12T16:26:51.536Z,27.02
2022-08-12T16:29:52.608Z,27.02
2022-08-12T16:32:24.568Z,27.00
2022-08-12T16:35:01.309Z,26.96
2022-08-12T16:37:32.406Z,26.92
2022-08-12T16:40:06.360Z,26.94
2022-08-12T16:42:41.947Z,26.94
2022-08-12T16:45:14.049Z,26.92
2022-08-12T16:47:58.733Z,26.90
2022-08-12T16:50:31.179Z,26.92
2022-08-12T16:53:02.482Z,26.97
2022-08-12T16:55:42.098Z,26.95
2022-08-12T16:58:25.595Z,26.95
2022-08-12T17:00:56.339Z,26.90
2022-08-12T17:03:29.188Z,26.88
2022-08-12T17:05:58.913Z,26.84
2022-08-12T17:08:28.949Z,26.83
2022-08-12T17:10:57.670Z,26.78
2022-08-12T17:13:28.397Z,26.77
2022-08-12T17:16:05.212Z,26.77
2022-08-12T17:18:42.859Z,26.75
2022-08-12T17:21:41.766Z,26.68
2022-08-12T17:24:16.507Z,26.62
2022-08-12T17:26:49.127Z,26.58
2022-08-12T17:29:24.367Z,26.55
2022-08-12T17:32:11.171Z,26.50
2022-08-12T17:35:00.064Z,26.46
2022-08-12T17:37:28.639Z,26.40
2022-08-12T17:40:15.281Z,26.34
2022-08-12T17:42:48.137Z,26.30
2022-08-12T17:45:20.104Z,26.25
2022-08-12T17:48:01.619Z,26.20
2022-08-12T17:50:36.011Z,26.15
2022-08-12T17:53:04.806Z,26.09
2022-08-12T17:55:43.799Z,26.03
2022-08-12T17:58:37.249Z,25.97
2022-08-12T18:01:10.926Z,25.92
2022-08-12T18:04:05.459Z,25.85
2022-08-12T18:06:28.620Z,25.79
2022-08-12T18:09:09.389Z,25.72
2022-08-12T18:12:06.271Z,25.69
2022-08-12T18:14:38.289Z,25.63
2022-08-12T18:17:10.130Z,25.59
2022-08-12T18:20:05.050Z,25.54
2022-08-12T18:22:30.665Z,25.47
2022-08-12T18:25:06.681Z,25.41
2022-08-12T18:27:44.334Z,25.34
2022-08-12T18:30:20.625Z,25.27
2022-08-12T18:33:03.921Z,25.21
2022-08-12T18:35:46.277Z,25.15
2022-08-12T18:38:25.099Z,25.08
2022-08-12T18:41:22.164Z,25.03
2022-08-12T18:44:05.218Z,24.95
2022-08-12T18:46:54.270Z,24.90
2022-08-12T18:49:29.616Z,24.82
2022-08-12T18:52:04.562Z,24.74
2022-08-12T18:54:36.022Z,24.70
2022-08-12T18:57:16.342Z,24.63
2022-08-12T19:00:01.172Z,24.57
2022-08-12T19:02:39.933Z,24.50
2022-08-12T19:05:11.956Z,24.43
2022-08-12T19:07:49.929Z,24.39
2022-08-12T19:10:30.554Z,24.32
2022-08-12T19:13:23.144Z,24.25
2022-08-12T19:15:54.916Z,24.16
2022-08-12T19:18:29.844Z,24.09
2022-08-12T19:21:11.752Z,24.01
2022-08-12T19:24:04.613Z,23.88
2022-08-12T19:26:34.994Z,23.75
2022-08-12T19:29:05.786Z,23.67
2022-08-12T19:31:58.284Z,23.64
2022-08-12T19:37:27.041Z,23.60
2022-08-12T19:40:07.733Z,23.58
2022-08-12T19:42:41.988Z,23.54
2022-08-12T19:45:14.111Z,23.50
2022-08-12T19:47:46.040Z,23.44
2022-08-12T19:50:19.871Z,23.42
2022-08-12T19:52:53.465Z,23.41
2022-08-12T19:55:24.468Z,23.39
2022-08-12T19:58:01.613Z,23.36
2022-08-12T20:00:34.549Z,23.27
2022-08-12T20:03:04.544Z,23.24
2022-08-12T20:06:06.792Z,23.20
2022-08-12T20:08:31.436Z,23.14
2022-08-12T20:12:13.459Z,23.07
2022-08-12T20:14:00.318Z,23.01
2022-08-12T20:16:51.679Z,22.98
2022-08-12T20:19:52.862Z,22.94
2022-08-12T20:22:24.032Z,22.93
2022-08-12T20:25:01.214Z,22.86
2022-08-12T20:28:02.914Z,22.82
2022-08-12T20:30:35.129Z,22.78
2022-08-12T20:33:17.735Z,22.73
2022-08-12T20:36:13.143Z,22.68
2022-08-12T20:38:40.076Z,22.67
2022-08-12T20:41:17.399Z,22.65
2022-08-12T20:43:49.821Z,22.65
2022-08-12T20:46:19.414Z,22.62
2022-08-12T20:48:54.892Z,22.58
2022-08-12T20:51:50.930Z,22.56
2022-08-12T20:54:19.608Z,22.52
2022-08-12T20:56:48.826Z,22.52
2022-08-12T20:59:20.198Z,22.53
2022-08-12T21:01:54.223Z,22.54
2022-08-12T21:04:43.770Z,22.56
2022-08-12T21:07:14.353Z,22.54
2022-08-12T21:09:47.710Z,22.55
2022-08-12T21:12:27.855Z,22.55
2022-08-12T21:15:23.464Z,22.56
2022-08-12T21:18:11.778Z,22.50
2022-08-12T21:20:52.948Z,22.45
2022-08-12T21:23:21.678Z,22.44
2022-08-12T21:26:01.052Z,22.43
2022-08-12T21:28:31.590Z,22.42
2022-08-12T21:32:34.950Z,22.40
2022-08-12T21:34:07.331Z,22.40
2022-08-12T21:36:40.253Z,22.39
2022-08-12T21:39:21.430Z,22.36
2022-08-12T21:41:52.221Z,22.38
2022-08-12T21:45:43.485Z,22.38
2022-08-12T21:47:20.150Z,22.32
2022-08-12T21:50:03.784Z,22.26
2022-08-12T21:52:42.026Z,22.05
2022-08-12T21:55:18.423Z,22.00
2022-08-12T21:57:54.670Z,22.05
2022-08-12T22:00:36.720Z,22.09
2022-08-12T22:04:02.753Z,22.11
2022-08-12T22:06:26.010Z,22.11
2022-08-12T22:09:04.102Z,22.11
2022-08-12T22:11:41.864Z,22.08
2022-08-12T22:14:17.926Z,22.08
2022-08-12T22:16:52.258Z,22.11
2022-08-12T22:19:21.466Z,22.12
2022-08-12T22:21:55.579Z,22.15
2022-08-12T22:24:26.568Z,22.21
2022-08-12T22:27:18.141Z,22.27
2022-08-12T22:30:15.905Z,22.30
2022-08-12T22:32:50.706Z,22.33
2022-08-12T22:35:56.365Z,22.35
2022-08-12T22:38:23.812Z,22.37
2022-08-12T22:41:02.252Z,22.39
2022-08-12T22:44:00.034Z,22.42
2022-08-12T22:46:52.889Z,22.44
2022-08-12T22:49:49.371Z,22.41
2022-08-12T22:52:23.215Z,22.40
2022-08-12T22:55:03.906Z,22.38
2022-08-12T22:57:54.089Z,22.37
2022-08-12T23:00:24.301Z,22.36
2022-08-12T23:03:00.864Z,22.35
2022-08-12T23:05:56.790Z,22.33
2022-08-12T23:08:29.708Z,22.30
2022-08-12T23:11:02.088Z,22.27
2022-08-12T23:13:47.384Z,22.23
2022-08-12T23:16:29.508Z,22.18
2022-08-12T23:19:10.764Z,22.11
2022-08-12T23:22:06.714Z,22.11
2022-08-12T23:24:55.541Z,22.12
2022-08-12T23:27:51.191Z,22.12
2022-08-12T23:30:31.923Z,22.09
2022-08-12T23:33:19.798Z,22.07
2022-08-12T23:35:58.916Z,22.06
2022-08-12T23:38:33.069Z,22.06
2022-08-12T23:41:03.522Z,22.03
2022-08-12T23:43:39.846Z,21.98
2022-08-12T23:46:11.453Z,21.93
2022-08-12T23:48:40.026Z,21.90
2022-08-12T23:51:22.771Z,21.85
2022-08-12T23:54:00.037Z,21.79
2022-08-12T23:56:33.900Z,21.77
2022-08-12T23:59:06.834Z,21.78
